Terminal Aerodrome Forecast
Issued by NWS Tallahassee, FL

Home | Current Version | Previous Version | Text Only | Print | Product List | Glossary On
Versions: 1 2 3 4 5 6 7 8 9 10 11 12 13 14 15 16 17 18 19 20 21
000
FTUS42 KTAE 301729
TAFTLH
TAF
KTLH 301729Z 3018/0118 24007KT P6SM VCTS SCT030CB BKN050 BKN100
      TEMPO 3018/3022 VRB15G30KT 3SM TSRA BKN025CB
     FM010100 26005KT P6SM BKN250
     FM011000 00000KT 3SM BR FEW005
     FM011300 25008KT P6SM SCT030=

USA.gov is the U.S. government's official web portal to all federal, state and local government web resources and services.